sensor_id;sensor_type;location;lat;lon;timestamp;temperature;humidity
32698;DHT22;19087;51.062;3.754;2023-08-21T00:01:52;21.50;99.90
32698;DHT22;19087;51.062;3.754;2023-08-21T00:04:19;21.50;99.90
32698;DHT22;19087;51.062;3.754;2023-08-21T00:06:45;21.40;99.90
32698;DHT22;19087;51.062;3.754;2023-08-21T00:09:11;21.40;99.90
32698;DHT22;19087;51.062;3.754;2023-08-21T00:11:38;21.30;99.90
32698;DHT22;19087;51.062;3.754;2023-08-21T00:14:03;21.30;99.90
32698;DHT22;19087;51.062;3.754;2023-08-21T00:16:30;21.20;99.90
32698;DHT22;19087;51.062;3.754;2023-08-21T00:19:02;21.20;99.90
32698;DHT22;19087;51.062;3.754;2023-08-21T00:21:28;21.10;99.90
32698;DHT22;19087;51.062;3.754;2023-08-21T00:23:54;21.10;99.90
32698;DHT22;19087;51.062;3.754;2023-08-21T00:26:20;21.00;99.90
32698;DHT22;19087;51.062;3.754;2023-08-21T00:28:46;21.00;99.90
32698;DHT22;19087;51.062;3.754;2023-08-21T00:31:11;21.00;99.90
32698;DHT22;19087;51.062;3.754;2023-08-21T00:33:37;20.90;99.90
32698;DHT22;19087;51.062;3.754;2023-08-21T00:36:03;20.90;99.90
32698;DHT22;19087;51.062;3.754;2023-08-21T00:38:29;20.90;99.90
32698;DHT22;19087;51.062;3.754;2023-08-21T00:40:55;20.80;99.90
32698;DHT22;19087;51.062;3.754;2023-08-21T00:43:22;20.80;99.90
32698;DHT22;19087;51.062;3.754;2023-08-21T00:45:50;20.80;99.90
32698;DHT22;19087;51.062;3.754;2023-08-21T00:48:16;20.80;99.90
32698;DHT22;19087;51.062;3.754;2023-08-21T00:50:42;20.80;99.90
32698;DHT22;19087;51.062;3.754;2023-08-21T00:53:10;20.80;99.90
32698;DHT22;19087;51.062;3.754;2023-08-21T00:55:36;20.80;99.90
32698;DHT22;19087;51.062;3.754;2023-08-21T00:58:02;20.80;99.90
32698;DHT22;19087;51.062;3.754;2023-08-21T01:00:30;20.80;99.90
32698;DHT22;19087;51.062;3.754;2023-08-21T01:02:56;20.80;99.90
32698;DHT22;19087;51.062;3.754;2023-08-21T01:05:22;20.90;99.90
32698;DHT22;19087;51.062;3.754;2023-08-21T01:08:01;21.00;99.90
32698;DHT22;19087;51.062;3.754;2023-08-21T01:15:36;21.10;99.90
32698;DHT22;19087;51.062;3.754;2023-08-21T01:18:03;21.20;99.90
32698;DHT22;19087;51.062;3.754;2023-08-21T01:20:29;21.20;99.90
32698;DHT22;19087;51.062;3.754;2023-08-21T01:22:55;21.30;99.90
32698;DHT22;19087;51.062;3.754;2023-08-21T01:25:22;21.20;99.90
32698;DHT22;19087;51.062;3.754;2023-08-21T01:27:49;21.20;99.90
32698;DHT22;19087;51.062;3.754;2023-08-21T01:30:16;21.20;99.90
32698;DHT22;19087;51.062;3.754;2023-08-21T01:32:50;21.20;99.90
32698;DHT22;19087;51.062;3.754;2023-08-21T01:35:17;21.30;99.90
32698;DHT22;19087;51.062;3.754;2023-08-21T01:37:44;21.30;99.90
32698;DHT22;19087;51.062;3.754;2023-08-21T01:40:11;21.40;99.90
32698;DHT22;19087;51.062;3.754;2023-08-21T01:42:37;21.40;99.90
32698;DHT22;19087;51.062;3.754;2023-08-21T01:45:04;21.40;99.90
32698;DHT22;19087;51.062;3.754;2023-08-21T01:47:30;21.40;99.90
32698;DHT22;19087;51.062;3.754;2023-08-21T01:49:56;21.40;99.90
32698;DHT22;19087;51.062;3.754;2023-08-21T01:52:21;21.40;99.90
32698;DHT22;19087;51.062;3.754;2023-08-21T01:54:49;21.40;99.90
32698;DHT22;19087;51.062;3.754;2023-08-21T01:57:16;21.40;99.90
32698;DHT22;19087;51.062;3.754;2023-08-21T01:59:43;21.40;99.90
32698;DHT22;19087;51.062;3.754;2023-08-21T02:02:09;21.30;99.90
32698;DHT22;19087;51.062;3.754;2023-08-21T02:04:35;21.30;99.90
32698;DHT22;19087;51.062;3.754;2023-08-21T02:07:00;21.20;99.90
32698;DHT22;19087;51.062;3.754;2023-08-21T02:09:27;21.20;99.90
32698;DHT22;19087;51.062;3.754;2023-08-21T02:11:53;21.20;99.90
32698;DHT22;19087;51.062;3.754;2023-08-21T02:14:19;21.10;99.90
32698;DHT22;19087;51.062;3.754;2023-08-21T02:16:44;21.10;99.90
32698;DHT22;19087;51.062;3.754;2023-08-21T02:19:10;21.10;99.90
32698;DHT22;19087;51.062;3.754;2023-08-21T02:21:36;21.00;99.90
32698;DHT22;19087;51.062;3.754;2023-08-21T02:24:02;21.10;99.90
32698;DHT22;19087;51.062;3.754;2023-08-21T02:26:28;21.00;99.90
32698;DHT22;19087;51.062;3.754;2023-08-21T02:28:53;21.00;99.90
32698;DHT22;19087;51.062;3.754;2023-08-21T02:31:19;21.00;99.90
32698;DHT22;19087;51.062;3.754;2023-08-21T02:33:45;21.00;99.90
32698;DHT22;19087;51.062;3.754;2023-08-21T02:36:11;21.00;99.90
32698;DHT22;19087;51.062;3.754;2023-08-21T02:38:36;21.10;99.90
32698;DHT22;19087;51.062;3.754;2023-08-21T02:41:03;21.10;99.90
32698;DHT22;19087;51.062;3.754;2023-08-21T02:43:29;21.00;99.90
32698;DHT22;19087;51.062;3.754;2023-08-21T02:45:58;21.00;99.90
32698;DHT22;19087;51.062;3.754;2023-08-21T02:48:25;20.90;99.90
32698;DHT22;19087;51.062;3.754;2023-08-21T02:50:51;20.90;99.90
32698;DHT22;19087;51.062;3.754;2023-08-21T02:53:17;20.80;99.90
32698;DHT22;19087;51.062;3.754;2023-08-21T02:55:43;20.80;99.90
32698;DHT22;19087;51.062;3.754;2023-08-21T02:58:08;20.70;99.90
32698;DHT22;19087;51.062;3.754;2023-08-21T03:00:40;20.70;99.90
32698;DHT22;19087;51.062;3.754;2023-08-21T03:03:08;20.60;99.90
32698;DHT22;19087;51.062;3.754;2023-08-21T03:05:33;20.50;99.90
32698;DHT22;19087;51.062;3.754;2023-08-21T03:07:59;20.40;99.90
32698;DHT22;19087;51.062;3.754;2023-08-21T03:10:31;20.40;99.90
32698;DHT22;19087;51.062;3.754;2023-08-21T03:13:00;20.40;99.90
32698;DHT22;19087;51.062;3.754;2023-08-21T03:15:26;20.40;99.90
32698;DHT22;19087;51.062;3.754;2023-08-21T03:17:51;20.40;99.90
32698;DHT22;19087;51.062;3.754;2023-08-21T03:20:17;20.40;99.90
32698;DHT22;19087;51.062;3.754;2023-08-21T03:22:43;20.30;99.90
32698;DHT22;19087;51.062;3.754;2023-08-21T03:25:09;20.20;99.90
32698;DHT22;19087;51.062;3.754;2023-08-21T03:27:35;20.10;99.90
32698;DHT22;19087;51.062;3.754;2023-08-21T03:30:06;20.10;99.90
32698;DHT22;19087;51.062;3.754;2023-08-21T03:32:32;20.10;99.90
32698;DHT22;19087;51.062;3.754;2023-08-21T03:34:58;20.00;99.90
32698;DHT22;19087;51.062;3.754;2023-08-21T03:37:24;19.90;99.90
32698;DHT22;19087;51.062;3.754;2023-08-21T03:39:50;19.90;99.90
32698;DHT22;19087;51.062;3.754;2023-08-21T03:42:16;19.90;99.90
32698;DHT22;19087;51.062;3.754;2023-08-21T03:44:41;19.80;99.90
32698;DHT22;19087;51.062;3.754;2023-08-21T03:47:07;19.80;99.90
32698;DHT22;19087;51.062;3.754;2023-08-21T03:49:33;19.80;99.90
32698;DHT22;19087;51.062;3.754;2023-08-21T03:51:59;19.90;99.90
32698;DHT22;19087;51.062;3.754;2023-08-21T03:54:24;19.90;99.90
32698;DHT22;19087;51.062;3.754;2023-08-21T03:56:50;20.00;99.90
32698;DHT22;19087;51.062;3.754;2023-08-21T03:59:16;19.90;99.90
32698;DHT22;19087;51.062;3.754;2023-08-21T04:01:42;19.90;99.90
32698;DHT22;19087;51.062;3.754;2023-08-21T04:04:09;19.90;99.90
32698;DHT22;19087;51.062;3.754;2023-08-21T04:06:35;19.80;99.90
32698;DHT22;19087;51.062;3.754;2023-08-21T04:09:01;19.70;99.90
32698;DHT22;19087;51.062;3.754;2023-08-21T04:11:27;19.70;99.90
32698;DHT22;19087;51.062;3.754;2023-08-21T04:13:54;19.70;99.90
32698;DHT22;19087;51.062;3.754;2023-08-21T04:16:20;19.70;99.90
32698;DHT22;19087;51.062;3.754;2023-08-21T04:18:47;19.60;99.90
32698;DHT22;19087;51.062;3.754;2023-08-21T04:21:13;19.50;99.90
32698;DHT22;19087;51.062;3.754;2023-08-21T04:23:39;19.50;99.90
32698;DHT22;19087;51.062;3.754;2023-08-21T04:26:05;19.40;99.90
32698;DHT22;19087;51.062;3.754;2023-08-21T04:28:32;19.40;99.90
32698;DHT22;19087;51.062;3.754;2023-08-21T04:30:58;19.40;99.90
32698;DHT22;19087;51.062;3.754;2023-08-21T04:33:28;19.40;99.90
32698;DHT22;19087;51.062;3.754;2023-08-21T04:35:54;19.30;99.90
32698;DHT22;19087;51.062;3.754;2023-08-21T04:38:20;19.20;99.90
32698;DHT22;19087;51.062;3.754;2023-08-21T04:40:46;19.20;99.90
32698;DHT22;19087;51.062;3.754;2023-08-21T04:43:11;19.20;99.90
32698;DHT22;19087;51.062;3.754;2023-08-21T04:45:37;19.10;99.90
32698;DHT22;19087;51.062;3.754;2023-08-21T04:48:04;19.10;99.90
32698;DHT22;19087;51.062;3.754;2023-08-21T04:50:30;19.00;99.90
32698;DHT22;19087;51.062;3.754;2023-08-21T04:52:56;19.00;99.90
32698;DHT22;19087;51.062;3.754;2023-08-21T04:55:23;19.10;99.90
32698;DHT22;19087;51.062;3.754;2023-08-21T04:57:49;19.10;99.90
32698;DHT22;19087;51.062;3.754;2023-08-21T05:00:15;19.20;99.90
32698;DHT22;19087;51.062;3.754;2023-08-21T05:02:41;19.20;99.90
32698;DHT22;19087;51.062;3.754;2023-08-21T05:05:07;19.20;99.90
32698;DHT22;19087;51.062;3.754;2023-08-21T05:07:34;19.30;99.90
32698;DHT22;19087;51.062;3.754;2023-08-21T05:10:01;19.30;99.90
32698;DHT22;19087;51.062;3.754;2023-08-21T05:12:27;19.30;99.90
32698;DHT22;19087;51.062;3.754;2023-08-21T05:14:53;19.30;99.90
32698;DHT22;19087;51.062;3.754;2023-08-21T05:17:19;19.30;99.90
32698;DHT22;19087;51.062;3.754;2023-08-21T05:19:45;19.40;99.90
32698;DHT22;19087;51.062;3.754;2023-08-21T05:22:12;19.40;99.90
32698;DHT22;19087;51.062;3.754;2023-08-21T05:24:38;19.50;99.90
32698;DHT22;19087;51.062;3.754;2023-08-21T05:27:04;19.60;99.90
32698;DHT22;19087;51.062;3.754;2023-08-21T05:29:30;19.70;99.90
32698;DHT22;19087;51.062;3.754;2023-08-21T05:31:56;19.70;99.90
32698;DHT22;19087;51.062;3.754;2023-08-21T05:34:22;19.70;99.90
32698;DHT22;19087;51.062;3.754;2023-08-21T05:36:48;19.80;99.90
32698;DHT22;19087;51.062;3.754;2023-08-21T05:39:14;19.90;99.90
32698;DHT22;19087;51.062;3.754;2023-08-21T05:41:40;20.00;99.90
32698;DHT22;19087;51.062;3.754;2023-08-21T05:44:06;20.00;99.90
32698;DHT22;19087;51.062;3.754;2023-08-21T05:46:32;20.10;99.90
32698;DHT22;19087;51.062;3.754;2023-08-21T05:48:58;20.10;99.90
32698;DHT22;19087;51.062;3.754;2023-08-21T05:51:24;20.20;99.90
32698;DHT22;19087;51.062;3.754;2023-08-21T05:53:50;20.20;99.90
32698;DHT22;19087;51.062;3.754;2023-08-21T05:56:15;20.20;99.90
32698;DHT22;19087;51.062;3.754;2023-08-21T05:58:41;20.20;99.90
32698;DHT22;19087;51.062;3.754;2023-08-21T06:01:07;20.10;99.90
32698;DHT22;19087;51.062;3.754;2023-08-21T06:03:33;20.20;99.90
32698;DHT22;19087;51.062;3.754;2023-08-21T06:05:58;20.30;99.90
32698;DHT22;19087;51.062;3.754;2023-08-21T06:08:24;20.50;99.90
32698;DHT22;19087;51.062;3.754;2023-08-21T06:10:53;20.50;99.90
32698;DHT22;19087;51.062;3.754;2023-08-21T06:13:19;20.50;99.90
32698;DHT22;19087;51.062;3.754;2023-08-21T06:15:45;20.50;99.90
32698;DHT22;19087;51.062;3.754;2023-08-21T06:18:11;20.50;99.90
32698;DHT22;19087;51.062;3.754;2023-08-21T06:20:37;20.50;99.90
32698;DHT22;19087;51.062;3.754;2023-08-21T06:23:03;20.60;99.90
32698;DHT22;19087;51.062;3.754;2023-08-21T06:25:29;20.60;99.90
32698;DHT22;19087;51.062;3.754;2023-08-21T06:27:56;20.60;99.90
32698;DHT22;19087;51.062;3.754;2023-08-21T06:30:23;20.70;99.90
32698;DHT22;19087;51.062;3.754;2023-08-21T06:32:49;21.30;99.90
32698;DHT22;19087;51.062;3.754;2023-08-21T06:35:15;22.60;99.90
32698;DHT22;19087;51.062;3.754;2023-08-21T06:37:41;24.30;99.90
32698;DHT22;19087;51.062;3.754;2023-08-21T06:40:08;25.90;99.90
32698;DHT22;19087;51.062;3.754;2023-08-21T06:42:33;27.20;99.90
32698;DHT22;19087;51.062;3.754;2023-08-21T06:45:00;28.30;99.40
32698;DHT22;19087;51.062;3.754;2023-08-21T06:47:26;29.30;97.70
32698;DHT22;19087;51.062;3.754;2023-08-21T06:49:53;30.30;95.60
32698;DHT22;19087;51.062;3.754;2023-08-21T06:52:18;31.10;94.40
32698;DHT22;19087;51.062;3.754;2023-08-21T06:54:44;32.00;92.90
32698;DHT22;19087;51.062;3.754;2023-08-21T06:57:10;32.30;91.30
32698;DHT22;19087;51.062;3.754;2023-08-21T06:59:36;32.70;90.50
32698;DHT22;19087;51.062;3.754;2023-08-21T07:02:02;33.50;90.40
32698;DHT22;19087;51.062;3.754;2023-08-21T07:04:28;34.10;89.10
32698;DHT22;19087;51.062;3.754;2023-08-21T07:06:54;34.80;86.60
32698;DHT22;19087;51.062;3.754;2023-08-21T07:09:20;35.20;83.70
32698;DHT22;19087;51.062;3.754;2023-08-21T07:11:46;35.60;81.90
32698;DHT22;19087;51.062;3.754;2023-08-21T07:14:11;35.90;81.30
32698;DHT22;19087;51.062;3.754;2023-08-21T07:16:39;36.20;80.20
32698;DHT22;19087;51.062;3.754;2023-08-21T07:19:05;36.60;79.80
32698;DHT22;19087;51.062;3.754;2023-08-21T07:21:33;37.00;78.10
32698;DHT22;19087;51.062;3.754;2023-08-21T07:24:03;37.30;77.70
32698;DHT22;19087;51.062;3.754;2023-08-21T07:26:28;37.50;76.00
32698;DHT22;19087;51.062;3.754;2023-08-21T07:28:54;37.50;75.40
32698;DHT22;19087;51.062;3.754;2023-08-21T07:31:22;37.70;75.10
32698;DHT22;19087;51.062;3.754;2023-08-21T07:33:47;38.00;74.40
32698;DHT22;19087;51.062;3.754;2023-08-21T07:36:13;38.10;73.80
32698;DHT22;19087;51.062;3.754;2023-08-21T07:38:45;38.40;73.80
32698;DHT22;19087;51.062;3.754;2023-08-21T07:41:12;38.50;72.80
32698;DHT22;19087;51.062;3.754;2023-08-21T07:43:40;38.70;71.60
32698;DHT22;19087;51.062;3.754;2023-08-21T07:46:08;38.80;71.50
32698;DHT22;19087;51.062;3.754;2023-08-21T07:48:36;38.90;72.00
32698;DHT22;19087;51.062;3.754;2023-08-21T07:51:02;39.00;70.80
32698;DHT22;19087;51.062;3.754;2023-08-21T07:53:28;38.70;70.60
32698;DHT22;19087;51.062;3.754;2023-08-21T07:55:53;39.00;70.70
32698;DHT22;19087;51.062;3.754;2023-08-21T07:58:19;39.20;70.00
32698;DHT22;19087;51.062;3.754;2023-08-21T08:00:45;39.10;69.60
32698;DHT22;19087;51.062;3.754;2023-08-21T08:03:11;38.80;69.70
32698;DHT22;19087;51.062;3.754;2023-08-21T08:05:40;38.90;70.10
32698;DHT22;19087;51.062;3.754;2023-08-21T08:08:06;39.10;70.30
32698;DHT22;19087;51.062;3.754;2023-08-21T08:10:33;38.90;69.70
32698;DHT22;19087;51.062;3.754;2023-08-21T08:13:01;38.90;69.80
32698;DHT22;19087;51.062;3.754;2023-08-21T08:15:27;38.80;69.90
32698;DHT22;19087;51.062;3.754;2023-08-21T08:17:54;38.70;69.70
32698;DHT22;19087;51.062;3.754;2023-08-21T08:20:20;38.70;70.00
32698;DHT22;19087;51.062;3.754;2023-08-21T08:22:46;38.90;69.40
32698;DHT22;19087;51.062;3.754;2023-08-21T08:25:12;38.90;69.40
32698;DHT22;19087;51.062;3.754;2023-08-21T08:27:39;39.00;69.10
32698;DHT22;19087;51.062;3.754;2023-08-21T08:30:06;38.90;69.10
32698;DHT22;19087;51.062;3.754;2023-08-21T08:32:32;38.50;70.10
32698;DHT22;19087;51.062;3.754;2023-08-21T08:34:59;38.70;70.10
32698;DHT22;19087;51.062;3.754;2023-08-21T08:37:25;38.40;69.60
32698;DHT22;19087;51.062;3.754;2023-08-21T08:39:51;38.70;70.10
32698;DHT22;19087;51.062;3.754;2023-08-21T08:42:16;38.40;69.30
32698;DHT22;19087;51.062;3.754;2023-08-21T08:44:43;38.50;70.00
32698;DHT22;19087;51.062;3.754;2023-08-21T08:47:11;38.50;69.90
32698;DHT22;19087;51.062;3.754;2023-08-21T08:49:40;37.70;70.50
32698;DHT22;19087;51.062;3.754;2023-08-21T08:52:06;36.50;72.10
32698;DHT22;19087;51.062;3.754;2023-08-21T08:54:33;35.40;74.10
32698;DHT22;19087;51.062;3.754;2023-08-21T08:57:01;34.00;75.90
32698;DHT22;19087;51.062;3.754;2023-08-21T08:59:30;32.60;78.60
32698;DHT22;19087;51.062;3.754;2023-08-21T09:01:57;31.40;81.70
32698;DHT22;19087;51.062;3.754;2023-08-21T09:04:23;30.80;83.40
32698;DHT22;19087;51.062;3.754;2023-08-21T09:06:49;30.30;84.60
32698;DHT22;19087;51.062;3.754;2023-08-21T09:09:15;29.70;85.70
32698;DHT22;19087;51.062;3.754;2023-08-21T09:11:45;29.20;87.20
32698;DHT22;19087;51.062;3.754;2023-08-21T09:14:11;28.50;88.80
32698;DHT22;19087;51.062;3.754;2023-08-21T09:16:37;28.10;90.40
32698;DHT22;19087;51.062;3.754;2023-08-21T09:19:03;27.90;90.60
32698;DHT22;19087;51.062;3.754;2023-08-21T09:21:29;27.40;90.60
32698;DHT22;19087;51.062;3.754;2023-08-21T09:24:00;27.00;91.40
32698;DHT22;19087;51.062;3.754;2023-08-21T09:26:26;26.80;91.80
32698;DHT22;19087;51.062;3.754;2023-08-21T09:28:53;26.50;91.80
32698;DHT22;19087;51.062;3.754;2023-08-21T09:31:32;26.20;92.80
32698;DHT22;19087;51.062;3.754;2023-08-21T09:33:59;25.80;93.30
32698;DHT22;19087;51.062;3.754;2023-08-21T09:36:27;25.80;93.50
32698;DHT22;19087;51.062;3.754;2023-08-21T09:38:53;25.80;93.20
32698;DHT22;19087;51.062;3.754;2023-08-21T09:41:23;25.80;93.20
32698;DHT22;19087;51.062;3.754;2023-08-21T09:43:49;25.80;93.50
32698;DHT22;19087;51.062;3.754;2023-08-21T09:46:23;25.80;93.10
32698;DHT22;19087;51.062;3.754;2023-08-21T09:48:51;25.80;93.70
32698;DHT22;19087;51.062;3.754;2023-08-21T09:51:17;26.00;94.00
32698;DHT22;19087;51.062;3.754;2023-08-21T09:53:44;25.90;92.90
32698;DHT22;19087;51.062;3.754;2023-08-21T09:56:11;25.90;93.30
32698;DHT22;19087;51.062;3.754;2023-08-21T09:58:37;26.00;93.50
32698;DHT22;19087;51.062;3.754;2023-08-21T10:01:07;26.10;93.80
32698;DHT22;19087;51.062;3.754;2023-08-21T10:03:38;26.00;93.90
32698;DHT22;19087;51.062;3.754;2023-08-21T10:06:08;25.90;93.60
32698;DHT22;19087;51.062;3.754;2023-08-21T10:08:39;25.90;93.40
32698;DHT22;19087;51.062;3.754;2023-08-21T10:11:09;25.90;93.10
32698;DHT22;19087;51.062;3.754;2023-08-21T10:13:37;25.80;93.20
32698;DHT22;19087;51.062;3.754;2023-08-21T10:16:04;25.90;93.10
32698;DHT22;19087;51.062;3.754;2023-08-21T10:18:33;26.00;93.20
32698;DHT22;19087;51.062;3.754;2023-08-21T10:21:18;26.10;93.00
32698;DHT22;19087;51.062;3.754;2023-08-21T10:23:48;26.30;92.90
32698;DHT22;19087;51.062;3.754;2023-08-21T10:26:18;26.20;92.90
32698;DHT22;19087;51.062;3.754;2023-08-21T10:28:58;26.30;93.10
32698;DHT22;19087;51.062;3.754;2023-08-21T10:31:41;26.40;92.80
32698;DHT22;19087;51.062;3.754;2023-08-21T10:34:13;26.50;92.90
32698;DHT22;19087;51.062;3.754;2023-08-21T10:39:20;26.60;92.10
32698;DHT22;19087;51.062;3.754;2023-08-21T10:49:41;26.80;91.60
32698;DHT22;19087;51.062;3.754;2023-08-21T10:52:08;26.70;91.70
32698;DHT22;19087;51.062;3.754;2023-08-21T10:54:48;26.70;91.00
32698;DHT22;19087;51.062;3.754;2023-08-21T10:57:14;26.80;90.50
32698;DHT22;19087;51.062;3.754;2023-08-21T11:00:01;26.90;90.00
32698;DHT22;19087;51.062;3.754;2023-08-21T11:02:30;26.90;89.20
32698;DHT22;19087;51.062;3.754;2023-08-21T11:04:56;27.00;89.00
32698;DHT22;19087;51.062;3.754;2023-08-21T11:07:22;26.90;87.80
32698;DHT22;19087;51.062;3.754;2023-08-21T11:09:48;27.10;85.90
32698;DHT22;19087;51.062;3.754;2023-08-21T11:12:17;27.00;86.60
32698;DHT22;19087;51.062;3.754;2023-08-21T11:14:43;27.00;87.60
32698;DHT22;19087;51.062;3.754;2023-08-21T11:17:10;27.20;87.70
32698;DHT22;19087;51.062;3.754;2023-08-21T11:19:37;27.20;86.50
32698;DHT22;19087;51.062;3.754;2023-08-21T11:22:03;27.30;87.40
32698;DHT22;19087;51.062;3.754;2023-08-21T11:24:46;27.40;87.60
32698;DHT22;19087;51.062;3.754;2023-08-21T11:27:14;27.40;87.90
32698;DHT22;19087;51.062;3.754;2023-08-21T11:29:42;27.40;87.10
32698;DHT22;19087;51.062;3.754;2023-08-21T11:34:35;27.60;86.20
32698;DHT22;19087;51.062;3.754;2023-08-21T11:37:05;27.70;85.70
32698;DHT22;19087;51.062;3.754;2023-08-21T11:39:48;27.70;84.50
32698;DHT22;19087;51.062;3.754;2023-08-21T11:42:14;27.60;80.50
32698;DHT22;19087;51.062;3.754;2023-08-21T11:44:53;27.60;81.00
32698;DHT22;19087;51.062;3.754;2023-08-21T11:47:22;27.60;83.90
32698;DHT22;19087;51.062;3.754;2023-08-21T11:49:49;27.60;84.70
32698;DHT22;19087;51.062;3.754;2023-08-21T11:52:23;27.70;84.90
32698;DHT22;19087;51.062;3.754;2023-08-21T11:54:53;27.70;84.40
32698;DHT22;19087;51.062;3.754;2023-08-21T11:57:21;27.70;84.10
32698;DHT22;19087;51.062;3.754;2023-08-21T11:59:55;27.90;84.70
32698;DHT22;19087;51.062;3.754;2023-08-21T12:02:26;27.50;85.90
32698;DHT22;19087;51.062;3.754;2023-08-21T12:05:05;27.50;85.50
32698;DHT22;19087;51.062;3.754;2023-08-21T12:07:32;27.60;86.60
32698;DHT22;19087;51.062;3.754;2023-08-21T12:09:58;27.70;85.80
32698;DHT22;19087;51.062;3.754;2023-08-21T12:12:24;27.90;85.90
32698;DHT22;19087;51.062;3.754;2023-08-21T12:14:50;27.70;85.70
32698;DHT22;19087;51.062;3.754;2023-08-21T12:17:17;27.90;86.40
32698;DHT22;19087;51.062;3.754;2023-08-21T12:19:42;28.10;86.60
32698;DHT22;19087;51.062;3.754;2023-08-21T12:22:11;27.90;85.70
32698;DHT22;19087;51.062;3.754;2023-08-21T12:24:38;28.10;85.90
32698;DHT22;19087;51.062;3.754;2023-08-21T12:27:04;28.30;84.10
32698;DHT22;19087;51.062;3.754;2023-08-21T12:29:30;28.50;82.00
32698;DHT22;19087;51.062;3.754;2023-08-21T12:31:56;28.50;81.50
32698;DHT22;19087;51.062;3.754;2023-08-21T12:34:22;28.50;82.40
32698;DHT22;19087;51.062;3.754;2023-08-21T12:36:50;28.60;82.50
32698;DHT22;19087;51.062;3.754;2023-08-21T12:39:16;28.80;80.90
32698;DHT22;19087;51.062;3.754;2023-08-21T12:41:42;28.90;82.20
32698;DHT22;19087;51.062;3.754;2023-08-21T12:44:11;28.90;83.40
32698;DHT22;19087;51.062;3.754;2023-08-21T12:46:38;28.90;82.00
32698;DHT22;19087;51.062;3.754;2023-08-21T12:49:04;28.90;82.00
32698;DHT22;19087;51.062;3.754;2023-08-21T12:51:30;28.80;81.10
32698;DHT22;19087;51.062;3.754;2023-08-21T12:53:57;28.80;80.20
32698;DHT22;19087;51.062;3.754;2023-08-21T12:56:28;28.80;79.70
32698;DHT22;19087;51.062;3.754;2023-08-21T12:58:54;28.70;79.90
32698;DHT22;19087;51.062;3.754;2023-08-21T13:01:20;28.60;80.80
32698;DHT22;19087;51.062;3.754;2023-08-21T13:03:46;28.60;79.90
32698;DHT22;19087;51.062;3.754;2023-08-21T13:06:13;28.60;79.60
32698;DHT22;19087;51.062;3.754;2023-08-21T13:08:40;28.60;79.00
32698;DHT22;19087;51.062;3.754;2023-08-21T13:11:06;28.50;81.60
32698;DHT22;19087;51.062;3.754;2023-08-21T13:13:32;28.50;83.00
32698;DHT22;19087;51.062;3.754;2023-08-21T13:15:58;28.50;83.40
32698;DHT22;19087;51.062;3.754;2023-08-21T13:18:26;28.70;82.90
32698;DHT22;19087;51.062;3.754;2023-08-21T13:20:52;28.60;83.10
32698;DHT22;19087;51.062;3.754;2023-08-21T13:23:18;28.70;81.60
32698;DHT22;19087;51.062;3.754;2023-08-21T13:25:44;28.70;82.00
32698;DHT22;19087;51.062;3.754;2023-08-21T13:28:11;28.80;83.00
32698;DHT22;19087;51.062;3.754;2023-08-21T13:30:38;28.90;83.20
32698;DHT22;19087;51.062;3.754;2023-08-21T13:33:04;29.10;82.50
32698;DHT22;19087;51.062;3.754;2023-08-21T13:35:31;29.30;80.60
32698;DHT22;19087;51.062;3.754;2023-08-21T13:37:57;29.40;81.20
32698;DHT22;19087;51.062;3.754;2023-08-21T13:40:24;29.40;77.80
32698;DHT22;19087;51.062;3.754;2023-08-21T13:42:51;29.40;76.50
32698;DHT22;19087;51.062;3.754;2023-08-21T13:45:19;29.20;77.60
32698;DHT22;19087;51.062;3.754;2023-08-21T13:47:47;29.10;78.00
32698;DHT22;19087;51.062;3.754;2023-08-21T13:50:14;29.20;79.40
32698;DHT22;19087;51.062;3.754;2023-08-21T13:52:41;29.30;79.70
32698;DHT22;19087;51.062;3.754;2023-08-21T13:55:09;29.40;79.90
32698;DHT22;19087;51.062;3.754;2023-08-21T13:57:35;29.40;79.30
32698;DHT22;19087;51.062;3.754;2023-08-21T14:00:05;29.50;78.80
32698;DHT22;19087;51.062;3.754;2023-08-21T14:02:33;29.40;79.30
32698;DHT22;19087;51.062;3.754;2023-08-21T14:05:00;29.40;78.90
32698;DHT22;19087;51.062;3.754;2023-08-21T14:07:36;29.40;78.80
32698;DHT22;19087;51.062;3.754;2023-08-21T14:13:09;29.50;78.30
32698;DHT22;19087;51.062;3.754;2023-08-21T14:15:44;29.60;79.20
32698;DHT22;19087;51.062;3.754;2023-08-21T14:18:13;29.70;78.40
32698;DHT22;19087;51.062;3.754;2023-08-21T14:20:38;29.60;78.30
32698;DHT22;19087;51.062;3.754;2023-08-21T14:23:06;29.60;78.70
32698;DHT22;19087;51.062;3.754;2023-08-21T14:25:33;29.70;79.40
32698;DHT22;19087;51.062;3.754;2023-08-21T14:27:59;29.80;78.40
32698;DHT22;19087;51.062;3.754;2023-08-21T14:30:25;30.00;79.40
32698;DHT22;19087;51.062;3.754;2023-08-21T14:32:51;30.20;80.00
32698;DHT22;19087;51.062;3.754;2023-08-21T14:35:18;30.40;78.80
32698;DHT22;19087;51.062;3.754;2023-08-21T14:37:50;30.60;77.70
32698;DHT22;19087;51.062;3.754;2023-08-21T14:40:15;30.90;77.50
32698;DHT22;19087;51.062;3.754;2023-08-21T14:42:43;30.90;75.10
32698;DHT22;19087;51.062;3.754;2023-08-21T14:45:09;31.00;75.10
32698;DHT22;19087;51.062;3.754;2023-08-21T14:47:35;31.10;74.90
32698;DHT22;19087;51.062;3.754;2023-08-21T14:50:02;31.10;74.80
32698;DHT22;19087;51.062;3.754;2023-08-21T14:52:29;31.20;74.80
32698;DHT22;19087;51.062;3.754;2023-08-21T14:54:54;31.10;75.00
32698;DHT22;19087;51.062;3.754;2023-08-21T14:57:23;31.10;75.80
32698;DHT22;19087;51.062;3.754;2023-08-21T14:59:49;31.10;75.10
32698;DHT22;19087;51.062;3.754;2023-08-21T15:02:15;31.00;73.60
32698;DHT22;19087;51.062;3.754;2023-08-21T15:04:42;31.10;74.10
32698;DHT22;19087;51.062;3.754;2023-08-21T15:07:09;31.00;73.20
32698;DHT22;19087;51.062;3.754;2023-08-21T15:09:35;31.10;74.00
32698;DHT22;19087;51.062;3.754;2023-08-21T15:12:01;31.10;74.10
32698;DHT22;19087;51.062;3.754;2023-08-21T15:14:27;30.80;73.40
32698;DHT22;19087;51.062;3.754;2023-08-21T15:16:53;30.80;73.20
32698;DHT22;19087;51.062;3.754;2023-08-21T15:19:19;30.60;73.10
32698;DHT22;19087;51.062;3.754;2023-08-21T15:21:44;30.60;72.50
32698;DHT22;19087;51.062;3.754;2023-08-21T15:24:11;30.30;73.60
32698;DHT22;19087;51.062;3.754;2023-08-21T15:26:39;30.40;74.50
32698;DHT22;19087;51.062;3.754;2023-08-21T15:29:06;30.60;74.90
32698;DHT22;19087;51.062;3.754;2023-08-21T15:31:31;30.90;74.60
32698;DHT22;19087;51.062;3.754;2023-08-21T15:33:57;31.10;73.70
32698;DHT22;19087;51.062;3.754;2023-08-21T15:36:24;31.30;74.50
32698;DHT22;19087;51.062;3.754;2023-08-21T15:38:49;31.30;77.10
32698;DHT22;19087;51.062;3.754;2023-08-21T15:41:15;31.10;75.60
32698;DHT22;19087;51.062;3.754;2023-08-21T15:43:41;31.00;76.00
32698;DHT22;19087;51.062;3.754;2023-08-21T15:46:07;31.00;76.20
32698;DHT22;19087;51.062;3.754;2023-08-21T15:48:33;31.00;76.20
32698;DHT22;19087;51.062;3.754;2023-08-21T15:50:59;30.80;77.40